createdAt,value
2018-05-31T00:01:25.969Z,23.44
2018-05-31T00:03:53.393Z,23.40
2018-05-31T00:06:21.720Z,23.37
2018-05-31T00:08:49.139Z,23.32
2018-05-31T00:11:16.568Z,23.27
2018-05-31T00:13:43.984Z,23.23
2018-05-31T00:16:11.413Z,23.20
2018-05-31T00:18:38.832Z,23.13
2018-05-31T00:21:06.255Z,23.05
2018-05-31T00:23:33.672Z,23.00
2018-05-31T00:26:01.097Z,22.96
2018-05-31T00:28:28.523Z,22.93
2018-05-31T00:30:55.957Z,22.93
2018-05-31T00:33:23.372Z,22.94
2018-05-31T00:35:50.806Z,22.93
2018-05-31T00:38:18.229Z,22.90
2018-05-31T00:40:45.651Z,22.90
2018-05-31T00:43:13.068Z,22.90
2018-05-31T00:45:40.501Z,22.88
2018-05-31T00:48:07.925Z,22.87
2018-05-31T00:50:35.353Z,22.84
2018-05-31T00:53:02.772Z,22.82
2018-05-31T00:55:41.989Z,22.79
2018-05-31T00:58:09.404Z,22.74
2018-05-31T01:00:36.823Z,22.71
2018-05-31T01:03:04.240Z,22.69
2018-05-31T01:05:31.675Z,22.67
2018-05-31T01:07:59.087Z,22.64
2018-05-31T01:10:26.517Z,22.63
2018-05-31T01:12:53.943Z,22.56
2018-05-31T01:15:21.368Z,22.51
2018-05-31T01:17:48.780Z,22.51
2018-05-31T01:20:16.206Z,22.50
2018-05-31T01:22:43.624Z,22.49
2018-05-31T01:25:11.049Z,22.46
2018-05-31T01:27:38.471Z,22.45
2018-05-31T01:30:05.900Z,22.46
2018-05-31T01:32:33.312Z,22.46
2018-05-31T01:35:00.724Z,22.45
2018-05-31T01:37:28.147Z,22.43
2018-05-31T01:39:55.577Z,22.39
2018-05-31T01:42:22.997Z,22.36
2018-05-31T01:44:50.409Z,22.33
2018-05-31T01:47:17.830Z,22.31
2018-05-31T01:49:45.245Z,22.29
2018-05-31T01:52:12.673Z,22.29
2018-05-31T01:54:40.093Z,22.27
2018-05-31T01:57:07.526Z,22.33
2018-05-31T01:59:34.944Z,22.38
2018-05-31T02:02:02.371Z,22.42
2018-05-31T02:04:29.786Z,22.56
2018-05-31T02:06:57.217Z,22.61
2018-05-31T02:09:24.637Z,22.64
2018-05-31T02:11:52.065Z,22.66
2018-05-31T02:14:19.484Z,22.67
2018-05-31T02:16:46.908Z,22.62
2018-05-31T02:19:14.323Z,22.62
2018-05-31T02:21:41.747Z,22.69
2018-05-31T02:24:09.160Z,22.72
2018-05-31T02:26:36.587Z,22.83
2018-05-31T02:29:04.004Z,22.91
2018-05-31T02:31:31.430Z,23.02
2018-05-31T02:33:58.851Z,23.04
2018-05-31T02:36:26.277Z,23.11
2018-05-31T02:38:53.693Z,23.13
2018-05-31T02:41:21.116Z,23.10
2018-05-31T02:43:48.528Z,23.14
2018-05-31T02:46:15.952Z,23.16
2018-05-31T02:48:43.367Z,23.17
2018-05-31T02:51:10.792Z,23.18
2018-05-31T02:53:38.212Z,23.13
2018-05-31T02:56:05.641Z,23.11
2018-05-31T02:58:33.052Z,23.16
2018-05-31T03:01:00.469Z,23.21
2018-05-31T03:03:27.897Z,23.25
2018-05-31T03:05:55.320Z,23.30
2018-05-31T03:08:22.737Z,23.32
2018-05-31T03:10:50.160Z,23.37
2018-05-31T03:13:17.580Z,23.33
2018-05-31T03:15:45.006Z,23.39
2018-05-31T03:18:12.505Z,23.46
2018-05-31T03:20:39.923Z,23.54
2018-05-31T03:23:07.349Z,23.57
2018-05-31T03:25:34.771Z,23.63
2018-05-31T03:28:02.197Z,23.66
2018-05-31T03:30:29.609Z,23.70
2018-05-31T03:32:57.047Z,23.66
2018-05-31T03:35:24.457Z,23.62
2018-05-31T03:37:51.889Z,23.52
2018-05-31T03:40:19.308Z,23.40
2018-05-31T03:42:46.740Z,23.30
2018-05-31T03:45:14.161Z,23.16
2018-05-31T03:47:41.580Z,23.04
2018-05-31T03:50:09.006Z,23.07
2018-05-31T03:52:36.424Z,23.10
2018-05-31T03:55:03.845Z,23.15
2018-05-31T03:57:31.317Z,23.13
2018-05-31T03:59:58.728Z,23.14
2018-05-31T04:02:26.144Z,23.15
2018-05-31T04:04:53.560Z,23.16
2018-05-31T04:07:20.993Z,23.19
2018-05-31T04:09:48.401Z,23.25
2018-05-31T04:12:15.841Z,23.27
2018-05-31T04:14:43.264Z,23.24
2018-05-31T04:17:10.688Z,23.04
2018-05-31T04:19:38.117Z,22.77
2018-05-31T04:22:05.549Z,22.69
2018-05-31T04:24:32.968Z,22.72
2018-05-31T04:27:00.396Z,22.52
2018-05-31T04:29:27.820Z,22.55
2018-05-31T04:31:55.256Z,22.51
2018-05-31T04:34:22.672Z,22.33
2018-05-31T04:36:50.104Z,22.23
2018-05-31T04:39:17.521Z,22.11
2018-05-31T04:41:44.944Z,22.10
2018-05-31T04:44:12.364Z,22.03
2018-05-31T04:46:39.806Z,22.02
2018-05-31T04:49:07.222Z,21.99
2018-05-31T04:51:34.900Z,21.95
2018-05-31T04:54:02.311Z,22.02
2018-05-31T04:56:29.732Z,22.16
2018-05-31T04:58:57.164Z,22.30
2018-05-31T05:01:24.582Z,22.40
2018-05-31T05:03:52.007Z,22.55
2018-05-31T05:06:19.449Z,22.72
2018-05-31T05:08:46.875Z,22.75
2018-05-31T05:11:14.293Z,22.84
2018-05-31T05:13:41.723Z,22.76
2018-05-31T05:16:09.137Z,22.77
2018-05-31T05:18:36.574Z,22.76
2018-05-31T05:21:03.988Z,22.86
2018-05-31T05:23:31.423Z,23.01
2018-05-31T05:25:58.841Z,23.12
2018-05-31T05:28:26.264Z,23.28
2018-05-31T05:30:53.680Z,23.37
2018-05-31T05:33:21.104Z,23.37
2018-05-31T05:35:48.524Z,23.36
2018-05-31T05:38:15.966Z,23.34
2018-05-31T05:40:43.384Z,23.28
2018-05-31T05:43:10.808Z,23.25
2018-05-31T05:45:38.220Z,23.25
2018-05-31T05:48:05.640Z,23.26
2018-05-31T05:50:33.052Z,23.25
2018-05-31T05:53:00.476Z,23.28
2018-05-31T05:55:27.894Z,23.30
2018-05-31T05:57:55.319Z,23.36
2018-05-31T06:00:22.735Z,23.43
2018-05-31T06:02:50.155Z,23.48
2018-05-31T06:05:17.572Z,23.56
2018-05-31T06:07:45.000Z,23.66
2018-05-31T06:10:12.429Z,23.76
2018-05-31T06:12:39.832Z,23.88
2018-05-31T06:15:07.252Z,23.97
2018-05-31T06:17:34.669Z,24.06
2018-05-31T06:20:02.103Z,24.18
2018-05-31T06:22:29.530Z,24.28
2018-05-31T06:24:56.960Z,24.38
2018-05-31T06:27:24.371Z,24.50
2018-05-31T06:29:51.809Z,24.65
2018-05-31T06:32:19.224Z,24.82
2018-05-31T06:34:46.652Z,24.95
2018-05-31T06:37:14.147Z,25.05
2018-05-31T06:39:41.516Z,25.13
2018-05-31T06:42:08.937Z,25.25
2018-05-31T06:44:36.365Z,25.41
2018-05-31T06:47:03.781Z,25.59
2018-05-31T06:49:31.215Z,25.73
2018-05-31T06:51:58.629Z,25.84
2018-05-31T06:54:26.084Z,25.94
2018-05-31T06:56:53.469Z,26.04
2018-05-31T06:59:20.901Z,26.21
2018-05-31T07:01:48.329Z,26.36
2018-05-31T07:04:15.749Z,26.44
2018-05-31T07:06:43.172Z,26.53
2018-05-31T07:09:10.598Z,26.61
2018-05-31T07:11:38.011Z,26.71
2018-05-31T07:14:05.424Z,26.84
2018-05-31T07:16:32.857Z,26.95
2018-05-31T07:19:00.281Z,27.12
2018-05-31T07:21:27.707Z,27.24
2018-05-31T07:23:55.129Z,27.41
2018-05-31T07:26:22.553Z,27.59
2018-05-31T07:28:49.976Z,27.73
2018-05-31T07:31:17.400Z,27.87
2018-05-31T07:33:44.830Z,28.09
2018-05-31T07:36:12.287Z,28.15
2018-05-31T07:38:39.689Z,28.31
2018-05-31T07:41:07.103Z,28.42
2018-05-31T07:43:34.520Z,28.54
2018-05-31T07:46:01.937Z,28.72
2018-05-31T07:48:29.353Z,28.79
2018-05-31T07:50:56.781Z,28.94
2018-05-31T07:53:24.192Z,28.95
2018-05-31T07:55:51.628Z,29.14
2018-05-31T07:58:19.062Z,29.39
2018-05-31T08:00:46.465Z,29.55
2018-05-31T08:03:13.899Z,29.83
2018-05-31T08:05:41.348Z,30.10
2018-05-31T08:08:08.748Z,30.33
2018-05-31T08:10:36.176Z,30.54
2018-05-31T08:13:03.596Z,30.80
2018-05-31T08:15:31.020Z,31.02
2018-05-31T08:17:58.442Z,31.18
2018-05-31T08:20:25.862Z,31.38
2018-05-31T08:22:53.280Z,31.43
2018-05-31T08:25:20.707Z,31.50
2018-05-31T08:27:48.129Z,31.71
2018-05-31T08:30:15.554Z,31.86
2018-05-31T08:32:42.968Z,31.97
2018-05-31T08:35:10.398Z,32.17
2018-05-31T08:37:37.807Z,32.26
2018-05-31T08:40:05.237Z,32.39
2018-05-31T08:42:32.651Z,32.55
2018-05-31T08:45:00.081Z,32.65
2018-05-31T08:47:27.505Z,32.65
2018-05-31T08:49:54.936Z,32.79
2018-05-31T08:52:22.352Z,32.84
2018-05-31T08:54:49.782Z,33.01
2018-05-31T08:57:17.209Z,33.23
2018-05-31T08:59:44.634Z,33.40
2018-05-31T09:02:12.059Z,33.46
2018-05-31T09:04:39.488Z,33.54
2018-05-31T09:07:06.909Z,33.66
2018-05-31T09:09:34.394Z,33.68
2018-05-31T09:12:01.817Z,33.77
2018-05-31T09:14:29.261Z,33.84
2018-05-31T09:16:56.696Z,34.03
2018-05-31T09:19:24.134Z,34.31
2018-05-31T09:21:51.577Z,34.45
2018-05-31T09:24:19.008Z,34.60
2018-05-31T09:26:46.444Z,34.78
2018-05-31T09:29:13.880Z,34.81
2018-05-31T09:31:41.300Z,34.85
2018-05-31T09:34:08.728Z,34.78
2018-05-31T09:36:36.156Z,34.83
2018-05-31T09:39:03.577Z,34.93
2018-05-31T09:41:31.005Z,35.07
2018-05-31T09:43:58.422Z,35.16
2018-05-31T09:46:25.861Z,35.18
2018-05-31T09:48:53.289Z,35.23
2018-05-31T09:51:20.721Z,35.39
2018-05-31T09:53:48.148Z,35.47
2018-05-31T09:56:15.585Z,35.49
2018-05-31T09:58:43.001Z,35.61
2018-05-31T10:01:10.441Z,35.67
2018-05-31T10:03:37.860Z,35.89
2018-05-31T10:06:05.295Z,35.88
2018-05-31T10:08:32.712Z,35.83
2018-05-31T10:11:00.149Z,35.80
2018-05-31T10:13:27.563Z,35.81
2018-05-31T10:15:55.006Z,35.82
2018-05-31T10:18:22.421Z,35.90
2018-05-31T10:20:49.862Z,36.03
2018-05-31T10:23:17.290Z,36.36
2018-05-31T10:25:44.713Z,36.45
2018-05-31T10:28:12.141Z,36.49
2018-05-31T10:30:39.568Z,36.41
2018-05-31T10:33:06.988Z,36.38
2018-05-31T10:35:34.416Z,36.65
2018-05-31T10:38:01.857Z,36.65
2018-05-31T10:40:29.276Z,36.59
2018-05-31T10:42:56.700Z,36.71
2018-05-31T10:45:24.141Z,36.66
2018-05-31T10:47:51.561Z,36.67
2018-05-31T10:50:18.995Z,36.85
2018-05-31T10:52:46.420Z,36.94
2018-05-31T10:55:13.849Z,36.88
2018-05-31T10:57:41.281Z,36.22
2018-05-31T11:00:08.717Z,35.70
2018-05-31T11:02:36.148Z,35.66
2018-05-31T11:05:03.570Z,35.80
2018-05-31T11:07:31.006Z,36.11
2018-05-31T11:09:58.416Z,36.38
2018-05-31T11:12:25.861Z,36.21
2018-05-31T11:14:53.303Z,36.09
2018-05-31T11:17:20.712Z,36.11
2018-05-31T11:19:48.132Z,35.80
2018-05-31T11:22:15.569Z,35.39
2018-05-31T11:24:42.988Z,35.43
2018-05-31T11:27:10.427Z,35.60
2018-05-31T11:29:37.835Z,35.77
2018-05-31T11:32:05.279Z,36.00
2018-05-31T11:34:32.680Z,36.20
2018-05-31T11:37:00.108Z,36.00
2018-05-31T11:39:27.536Z,35.84
2018-05-31T11:41:54.972Z,35.88
2018-05-31T11:44:22.388Z,36.02
2018-05-31T11:46:49.821Z,36.24
2018-05-31T11:49:17.256Z,36.36
2018-05-31T11:51:44.680Z,36.32
2018-05-31T11:54:12.105Z,36.43
2018-05-31T11:56:39.541Z,36.55
2018-05-31T11:59:06.975Z,36.63
2018-05-31T12:01:35.237Z,36.72
2018-05-31T12:04:02.669Z,36.94
2018-05-31T12:06:30.124Z,36.73
2018-05-31T12:08:57.527Z,36.30
2018-05-31T12:11:24.987Z,36.14
2018-05-31T12:13:52.409Z,36.40
2018-05-31T12:16:19.840Z,36.56
2018-05-31T12:18:47.260Z,36.67
2018-05-31T12:21:14.701Z,36.63
2018-05-31T12:23:42.123Z,36.93
2018-05-31T12:26:09.551Z,37.17
2018-05-31T12:28:36.976Z,37.16
2018-05-31T12:31:04.400Z,36.66
2018-05-31T12:33:31.824Z,36.16
2018-05-31T12:35:59.269Z,36.02
2018-05-31T12:38:26.707Z,35.85
2018-05-31T12:40:54.137Z,35.80
2018-05-31T12:43:21.564Z,35.63
2018-05-31T12:45:48.972Z,35.73
2018-05-31T12:48:16.400Z,36.07
2018-05-31T12:50:43.831Z,36.37
2018-05-31T12:53:11.255Z,36.46
2018-05-31T12:55:38.678Z,36.39
2018-05-31T12:58:06.116Z,36.13
2018-05-31T13:00:33.536Z,36.15
2018-05-31T13:03:00.989Z,36.28
2018-05-31T13:05:28.564Z,36.46
2018-05-31T13:07:56.020Z,36.53
2018-05-31T13:10:23.441Z,36.74
2018-05-31T13:12:50.872Z,36.79
2018-05-31T13:15:18.302Z,36.71
2018-05-31T13:17:45.731Z,36.53
2018-05-31T13:20:13.160Z,36.32
2018-05-31T13:22:40.589Z,36.33
2018-05-31T13:25:08.018Z,36.55
2018-05-31T13:27:35.458Z,36.60
2018-05-31T13:30:02.881Z,36.43
2018-05-31T13:32:30.311Z,36.02
2018-05-31T13:34:57.735Z,35.57
2018-05-31T13:37:25.177Z,35.36
2018-05-31T13:39:52.604Z,35.19
2018-05-31T13:42:20.032Z,35.06
2018-05-31T13:44:47.469Z,35.22
2018-05-31T13:47:14.904Z,35.29
2018-05-31T13:49:42.329Z,35.37
2018-05-31T13:52:09.760Z,35.09
2018-05-31T13:54:37.223Z,35.15
2018-05-31T13:57:04.652Z,35.25
2018-05-31T13:59:32.076Z,35.40
2018-05-31T14:01:59.503Z,35.72
2018-05-31T14:04:26.918Z,35.94
2018-05-31T14:06:54.335Z,35.91
2018-05-31T14:09:21.755Z,35.83
2018-05-31T14:11:49.168Z,35.74
2018-05-31T14:14:16.580Z,35.82
2018-05-31T14:16:44.008Z,35.80
2018-05-31T14:19:11.424Z,35.31
2018-05-31T14:21:38.843Z,34.90
2018-05-31T14:24:06.265Z,34.70
2018-05-31T14:26:33.687Z,34.46
2018-05-31T14:29:01.115Z,34.56
2018-05-31T14:31:28.534Z,34.88
2018-05-31T14:33:55.960Z,35.07
2018-05-31T14:36:23.369Z,35.20
2018-05-31T14:38:50.804Z,35.31
2018-05-31T14:41:18.225Z,35.41
2018-05-31T14:43:45.662Z,35.42
2018-05-31T14:46:13.081Z,35.43
2018-05-31T14:48:40.508Z,35.42
2018-05-31T14:51:07.930Z,35.32
2018-05-31T14:53:35.361Z,35.31
2018-05-31T14:56:02.786Z,35.21
2018-05-31T14:58:30.213Z,35.21
2018-05-31T15:00:57.631Z,35.21
2018-05-31T15:03:25.048Z,35.35
2018-05-31T15:05:52.469Z,35.36
2018-05-31T15:08:19.901Z,35.41
2018-05-31T15:10:47.309Z,35.54
2018-05-31T15:13:14.742Z,35.67
2018-05-31T15:15:42.175Z,35.50
2018-05-31T15:18:09.597Z,35.18
2018-05-31T15:20:37.024Z,35.11
2018-05-31T15:23:04.448Z,34.88
2018-05-31T15:25:31.867Z,34.58
2018-05-31T15:27:59.280Z,34.46
2018-05-31T15:30:26.792Z,34.40
2018-05-31T15:32:54.216Z,34.27
2018-05-31T15:35:21.634Z,34.15
2018-05-31T15:37:49.055Z,34.05
2018-05-31T15:40:16.472Z,34.03
2018-05-31T15:42:43.913Z,33.91
2018-05-31T15:45:11.328Z,33.75
2018-05-31T15:47:38.768Z,33.57
2018-05-31T15:50:06.197Z,33.37
2018-05-31T15:52:33.623Z,33.39
2018-05-31T15:55:01.052Z,33.37
2018-05-31T15:57:28.481Z,33.34
2018-05-31T15:59:55.908Z,33.24
2018-05-31T16:02:23.332Z,33.01
2018-05-31T16:04:50.777Z,32.93
2018-05-31T16:07:18.220Z,32.72
2018-05-31T16:09:45.650Z,32.53
2018-05-31T16:12:13.072Z,32.44
2018-05-31T16:14:40.508Z,32.46
2018-05-31T16:17:17.856Z,32.46
2018-05-31T16:19:45.408Z,32.54
2018-05-31T16:22:12.833Z,32.61
2018-05-31T16:24:40.265Z,32.58
2018-05-31T16:27:07.696Z,32.47
2018-05-31T16:29:35.144Z,32.41
2018-05-31T16:32:02.560Z,32.26
2018-05-31T16:34:29.990Z,32.25
2018-05-31T16:36:57.408Z,32.19
2018-05-31T16:39:24.843Z,32.13
2018-05-31T16:41:52.368Z,32.09
2018-05-31T16:44:19.792Z,31.94
2018-05-31T16:46:47.274Z,31.76
2018-05-31T16:49:14.735Z,31.74
2018-05-31T16:51:42.220Z,31.79
2018-05-31T16:54:09.648Z,31.90
2018-05-31T16:56:37.072Z,31.89
2018-05-31T16:59:04.559Z,31.82
2018-05-31T17:01:31.979Z,31.89
2018-05-31T17:03:59.396Z,31.90
2018-05-31T17:06:26.817Z,31.82
2018-05-31T17:08:54.282Z,31.65
2018-05-31T17:11:21.699Z,31.53
2018-05-31T17:13:49.187Z,31.45
2018-05-31T17:16:16.609Z,31.36
2018-05-31T17:18:44.037Z,31.30
2018-05-31T17:21:11.553Z,31.21
2018-05-31T17:23:39.012Z,31.17
2018-05-31T17:26:06.436Z,31.13
2018-05-31T17:28:33.865Z,31.13
2018-05-31T17:31:01.279Z,31.02
2018-05-31T17:33:28.703Z,30.95
2018-05-31T17:35:56.186Z,30.95
2018-05-31T17:38:23.603Z,30.95
2018-05-31T17:40:51.102Z,30.82
2018-05-31T17:43:18.503Z,30.73
2018-05-31T17:45:45.929Z,30.60
2018-05-31T17:48:13.340Z,30.58
2018-05-31T17:50:40.768Z,30.52
2018-05-31T17:53:08.197Z,30.48
2018-05-31T17:55:35.639Z,30.35
2018-05-31T17:58:03.048Z,30.24
2018-05-31T18:00:30.469Z,30.24
2018-05-31T18:02:57.895Z,30.21
2018-05-31T18:05:25.315Z,30.07
2018-05-31T18:07:52.747Z,30.02
2018-05-31T18:10:20.170Z,29.98
2018-05-31T18:12:47.589Z,29.84
2018-05-31T18:15:15.025Z,29.72
2018-05-31T18:17:42.437Z,29.61
2018-05-31T18:20:09.875Z,29.58
2018-05-31T18:22:37.289Z,29.60
2018-05-31T18:25:04.713Z,29.57
2018-05-31T18:27:32.176Z,29.40
2018-05-31T18:29:59.561Z,29.30
2018-05-31T18:32:26.975Z,29.23
2018-05-31T18:34:54.409Z,29.19
2018-05-31T18:37:22.700Z,29.06
2018-05-31T18:39:50.184Z,28.92
2018-05-31T18:42:17.624Z,28.84
2018-05-31T18:44:45.128Z,28.89
2018-05-31T18:47:12.563Z,28.75
2018-05-31T18:49:40.039Z,28.68
2018-05-31T18:52:09.380Z,28.69
2018-05-31T18:54:36.799Z,28.61
2018-05-31T18:57:04.888Z,28.59
2018-05-31T18:59:32.321Z,28.54
2018-05-31T19:01:59.737Z,28.52
2018-05-31T19:04:27.156Z,28.55
2018-05-31T19:06:54.593Z,28.49
2018-05-31T19:09:27.574Z,28.54
2018-05-31T19:11:55.021Z,28.54
2018-05-31T19:14:22.437Z,28.54
2018-05-31T19:16:49.869Z,28.54
2018-05-31T19:19:22.851Z,28.52
2018-05-31T19:21:50.296Z,28.40
2018-05-31T19:24:23.465Z,28.27
2018-05-31T19:26:50.905Z,28.18
2018-05-31T19:29:18.350Z,28.23
2018-05-31T19:31:45.757Z,28.31
2018-05-31T19:34:13.176Z,28.37
2018-05-31T19:36:46.245Z,28.38
2018-05-31T19:39:13.669Z,28.22
2018-05-31T19:41:41.095Z,28.07
2018-05-31T19:44:14.221Z,28.10
2018-05-31T19:46:41.649Z,28.06
2018-05-31T19:49:09.072Z,28.07
2018-05-31T19:54:40.761Z,27.87
2018-05-31T19:57:08.188Z,27.82
2018-05-31T20:02:44.395Z,27.78
2018-05-31T20:05:11.816Z,27.78
2018-05-31T20:07:39.277Z,27.71
2018-05-31T20:10:06.659Z,27.66
2018-05-31T20:12:34.089Z,27.68
2018-05-31T20:15:01.533Z,27.68
2018-05-31T20:17:28.943Z,27.52
2018-05-31T20:19:56.357Z,27.46
2018-05-31T20:22:23.797Z,27.42
2018-05-31T20:24:51.232Z,27.36
2018-05-31T20:27:18.656Z,27.29
2018-05-31T20:29:46.075Z,27.26
2018-05-31T20:32:13.504Z,26.97
2018-05-31T20:34:40.924Z,26.92
2018-05-31T20:37:08.347Z,26.97
2018-05-31T20:39:35.761Z,26.86
2018-05-31T20:42:03.184Z,26.85
2018-05-31T20:44:30.613Z,26.91
2018-05-31T20:46:58.032Z,27.00
2018-05-31T20:49:25.486Z,27.09
2018-05-31T20:51:52.882Z,27.18
2018-05-31T20:54:20.313Z,27.22
2018-05-31T20:56:47.737Z,27.21
2018-05-31T20:59:15.158Z,27.15
2018-05-31T21:01:42.580Z,27.06
2018-05-31T21:04:10.001Z,26.87
2018-05-31T21:06:37.436Z,26.65
2018-05-31T21:09:05.557Z,26.41
2018-05-31T21:11:32.981Z,26.14
2018-05-31T21:14:00.392Z,26.00
2018-05-31T21:16:27.816Z,25.92
2018-05-31T21:18:55.233Z,25.81
2018-05-31T21:21:22.672Z,25.74
2018-05-31T21:23:50.085Z,25.67
2018-05-31T21:26:17.516Z,25.56
2018-05-31T21:28:44.931Z,25.50
2018-05-31T21:31:12.357Z,25.40
2018-05-31T21:33:39.772Z,25.27
2018-05-31T21:36:07.200Z,25.19
2018-05-31T21:38:34.613Z,25.12
2018-05-31T21:41:02.055Z,25.02
2018-05-31T21:43:29.482Z,24.90
2018-05-31T21:45:56.892Z,24.77
2018-05-31T21:48:24.320Z,24.68
2018-05-31T21:50:51.737Z,24.66
2018-05-31T21:53:19.179Z,24.58
2018-05-31T21:55:46.591Z,24.51
2018-05-31T21:58:14.017Z,24.45
2018-05-31T22:01:02.136Z,24.34
2018-05-31T22:03:29.562Z,24.15
2018-05-31T22:05:56.997Z,24.10
2018-05-31T22:08:24.419Z,24.06
2018-05-31T22:10:51.832Z,24.05
2018-05-31T22:13:19.260Z,24.04
2018-05-31T22:15:46.676Z,24.00
2018-05-31T22:18:14.101Z,23.95
2018-05-31T22:20:41.508Z,23.92
2018-05-31T22:23:08.936Z,23.96
2018-05-31T22:25:36.357Z,23.97
2018-05-31T22:28:03.776Z,23.90
2018-05-31T22:30:31.200Z,23.87
2018-05-31T22:32:58.633Z,23.82
2018-05-31T22:35:26.045Z,23.76
2018-05-31T22:37:54.364Z,23.70
2018-05-31T22:40:21.777Z,23.63
2018-05-31T22:42:49.209Z,23.57
2018-05-31T22:45:16.630Z,23.51
2018-05-31T22:47:44.056Z,23.47
2018-05-31T22:50:11.471Z,23.41
2018-05-31T22:52:38.906Z,23.33
2018-05-31T22:55:06.312Z,23.29
2018-05-31T22:57:33.745Z,23.25
2018-05-31T23:00:01.161Z,23.21
2018-05-31T23:02:28.585Z,23.16
2018-05-31T23:04:55.999Z,23.08
2018-05-31T23:07:23.424Z,23.04
2018-05-31T23:09:50.845Z,23.02
2018-05-31T23:12:18.289Z,22.99
2018-05-31T23:14:45.694Z,22.95
2018-05-31T23:17:13.117Z,22.92
2018-05-31T23:19:40.540Z,22.84
2018-05-31T23:22:07.986Z,22.72
2018-05-31T23:24:35.405Z,22.70
2018-05-31T23:27:02.825Z,22.66
2018-05-31T23:29:30.264Z,22.62
2018-05-31T23:31:57.692Z,22.60
2018-05-31T23:34:25.112Z,22.58
2018-05-31T23:36:52.521Z,22.53
2018-05-31T23:39:19.946Z,22.45
2018-05-31T23:41:47.365Z,22.40
2018-05-31T23:44:14.791Z,22.40
2018-05-31T23:46:42.212Z,22.38
2018-05-31T23:49:09.645Z,22.36
2018-05-31T23:51:37.053Z,22.32
2018-05-31T23:54:04.506Z,22.34
2018-05-31T23:56:31.920Z,22.28
2018-05-31T23:58:59.347Z,22.19
